Cedarville, MI (49719)

8:34 PM EDT on September 02, 2014 (GMT -0400)
No. 8 Island | Change Station
CLOSE
Current Station
Personal Weather Station
Location: Cedarville, MI
Elevation: 587 ft
Nearby Weather Stations

Elev 587 ft 45.98 °N, 84.31 °W | Updated 1 second ago

Overcast
Overcast
65.4 °F
Feels Like 65.4 °F
N
2.6
Wind Variable Wind from NW
Gusts 8.3 mph

Today
High -- | Low -- °F
--% Chance of Precip.
Yesterday
High -- | Low -- °F
Precip. -- in
6:59 AM 8:13 PM
First Quarter, 56% visible
Pressure 29.82 in
Visibility 10.0 miles
Clouds Scattered Clouds 8000 ft
Mostly Cloudy 11000 ft
Dew Point 59 °F
Humidity 79%
Rainfall 0.01 in
Snow Depth Not available.
UV 0 out of 12
Pollen 8.60 out of 12
Ozone Good
PM2.5 Good
Flu Activity Not available.
METAR KMCD 030019Z AUTO 23010G15KT 10SM -RA SCT080 BKN110 18/16 A2982 RMK AO2 T01790158

More Conditions Fewer Conditions

Pressure 29.82 in
Visibility 10.0 miles
Clouds Scattered Clouds 8000 ft
Mostly Cloudy 11000 ft
Dew Point 59 °F
Humidity 79%
Rainfall 0.01 in
Snow Depth Not available.
UV 0 out of 12
Pollen 8.60 out of 12
Ozone Good
PM2.5 Good
Flu Activity Not available.
METAR KMCD 030019Z AUTO 23010G15KT 10SM -RA SCT080 BKN110 18/16 A2982 RMK AO2 T01790158

More Conditions Fewer Conditions

Nowcast | as of 8:00 PM EDT on September 2, 2014

At 9 PM...partly cloudy. Temperature 63. West winds 6 mph. At 11 PM...mostly clear. Temperature 62. West winds 6 mph. At 1 am...mostly clear. Temperature 60. West winds 6 mph. At 3 am...mostly clear. Temperature 60. Southwest winds 6 mph.

×

10-Day Weather Forecast

Almanac

Astronomy

Sep. 02, 2014 Rise Set
Actual Time 6:59 AM EDT 8:13 PM EDT
Civil Twilight 6:28 AM EDT 8:44 PM EDT
Nautical Twilight 5:51 AM EDT 9:21 PM EDT
Astronomical Twilight 5:12 AM EDT 10:00 PM EDT
Moon 3:05 PM EDT (9/2) No Moon Set
Length of Visible Light 14h 15m
Length of Day
13h 14m
Tomorrow will be 3m 9s shorter.
First Quarter, 56% of the Moon is Illuminated
Today
First Quarter
Sep 8
Full
Sep 15
Last Quarter
Sep 24
New
Oct 1
First Quarter

Today's Extremes

State Highs State Lows

Community

WunderPhotos

Upload Photos

1,749,812 photos uploaded!

Nearby

Air Quality

  Air Quality AQ Index Pollutant
Yesterday Good
OZONE
Yesterday Good
PM2.5
Current Good
PM2.5
Current Good
OZONE
Tuesday Good
OZONE
Tuesday Good
PM2.5
Wednesday Good
OZONE
Wednesday Good
PM2.5
Thursday Good
OZONE
Thursday Good
PM2.5
Friday Good
OZONE
Friday Good
PM2.5
Saturday Good
OZONE
Saturday Good
PM2.5
Sunday Good
OZONE
Sunday Good
PM2.5

Snow Depth

Station Depth Elevation
No new snow has been reported.

Earthquake Activity

City Distance Mag. Time & Date
No recent earthquake activity has been reported nearby.
Minimum magnitude displayed is 2.5.

Coastal Water Temperatures

Place Temperature
Mackinaw City, MI 64.9 °F
De Tour Village, MI 60.1 °F
Rock Cut, MI 62.1 °F
West Neebish, MI 59.0 °F
Little Rapids, MI 59.0 °F
S W Pier, MI 61.0 °F

Nearby Weather Stations